createdAt,value
2017-09-23T00:02:32.649Z,42.60
2017-09-23T00:05:35.001Z,43.47
2017-09-23T00:08:37.041Z,40.58
2017-09-23T00:11:39.447Z,42.17
2017-09-23T00:14:41.446Z,42.13
2017-09-23T00:17:43.818Z,41.10
2017-09-23T00:20:45.868Z,39.92
2017-09-23T00:23:48.324Z,39.33
2017-09-23T00:26:50.374Z,39.28
2017-09-23T00:29:52.741Z,40.03
2017-09-23T00:32:54.878Z,39.10
2017-09-23T00:35:57.255Z,40.78
2017-09-23T00:38:59.490Z,39.92
2017-09-23T00:42:01.900Z,39.17
2017-09-23T00:45:03.859Z,39.35
2017-09-23T00:48:06.982Z,39.10
2017-09-23T00:51:08.911Z,38.27
2017-09-23T00:54:11.302Z,42.53
2017-09-23T00:57:13.248Z,40.30
2017-09-23T01:00:15.604Z,40.80
2017-09-23T01:03:17.555Z,42.53
2017-09-23T01:06:20.103Z,39.93
2017-09-23T01:09:22.047Z,42.63
2017-09-23T01:12:24.500Z,41.53
2017-09-23T01:15:26.443Z,40.20
2017-09-23T01:18:28.815Z,40.67
2017-09-23T01:21:30.750Z,41.43
2017-09-23T01:24:33.128Z,39.77
2017-09-23T01:27:35.068Z,39.77
2017-09-23T01:30:38.240Z,39.20
2017-09-23T01:33:40.194Z,38.70
2017-09-23T01:36:42.553Z,37.90
2017-09-23T01:39:44.494Z,41.03
2017-09-23T01:42:46.851Z,40.13
2017-09-23T01:45:48.798Z,40.43
2017-09-23T01:48:51.169Z,42.73
2017-09-23T01:51:53.198Z,40.67
2017-09-23T01:54:55.556Z,42.90
2017-09-23T01:57:57.520Z,44.00
2017-09-23T02:00:59.888Z,42.27
2017-09-23T02:04:01.986Z,43.50
2017-09-23T02:07:05.090Z,41.40
2017-09-23T02:10:07.049Z,39.63
2017-09-23T02:13:09.404Z,40.53
2017-09-23T02:16:11.348Z,39.97
2017-09-23T02:19:13.701Z,40.07
2017-09-23T02:22:15.672Z,39.13
2017-09-23T02:25:18.035Z,42.37
2017-09-23T02:28:19.963Z,41.70
2017-09-23T02:31:22.332Z,40.83
2017-09-23T02:34:24.427Z,40.13
2017-09-23T02:37:27.564Z,37.97
2017-09-23T02:40:29.608Z,39.77
2017-09-23T02:43:31.959Z,39.67
2017-09-23T02:46:33.887Z,37.73
2017-09-23T02:49:36.170Z,39.20
2017-09-23T02:52:38.156Z,38.40
2017-09-23T02:55:40.475Z,39.53
2017-09-23T02:58:42.507Z,38.10
2017-09-23T03:01:44.980Z,37.80
2017-09-23T03:04:46.940Z,39.90
2017-09-23T03:07:49.399Z,40.07
2017-09-23T03:10:51.432Z,38.93
2017-09-23T03:13:53.808Z,38.50
2017-09-23T03:16:55.751Z,37.53
2017-09-23T03:19:58.112Z,38.47
2017-09-23T03:23:00.155Z,38.23
2017-09-23T03:26:02.446Z,40.47
2017-09-23T03:29:04.404Z,37.60
2017-09-23T03:32:06.813Z,40.17
2017-09-23T03:35:08.844Z,42.67
2017-09-23T03:38:11.145Z,42.23
2017-09-23T03:41:13.156Z,39.67
2017-09-23T03:44:15.727Z,39.80
2017-09-23T03:47:17.689Z,39.73
2017-09-23T03:50:20.145Z,37.00
2017-09-23T03:53:22.323Z,39.10
2017-09-23T03:56:24.639Z,37.83
2017-09-23T03:59:26.569Z,38.00
2017-09-23T04:02:28.956Z,38.20
2017-09-23T04:05:31.017Z,38.07
2017-09-23T04:08:33.364Z,40.33
2017-09-23T04:11:35.303Z,42.90
2017-09-23T04:14:37.604Z,42.53
2017-09-23T04:17:39.635Z,41.87
2017-09-23T04:20:42.050Z,40.93
2017-09-23T04:23:44.943Z,39.60
2017-09-23T04:26:47.299Z,39.83
2017-09-23T04:29:49.336Z,37.27
2017-09-23T04:32:51.646Z,40.37
2017-09-23T04:35:53.669Z,36.27
2017-09-23T04:38:56.025Z,36.40
2017-09-23T04:41:58.366Z,37.80
2017-09-23T04:45:00.740Z,37.10
2017-09-23T04:48:02.787Z,37.07
2017-09-23T04:51:05.099Z,37.77
2017-09-23T04:54:07.851Z,35.50
2017-09-23T04:57:10.159Z,35.47
2017-09-23T05:00:12.331Z,36.00
2017-09-23T05:03:14.679Z,37.70
2017-09-23T05:06:16.621Z,36.23
2017-09-23T05:09:18.975Z,37.53
2017-09-23T05:12:20.907Z,39.00
2017-09-23T05:15:23.170Z,39.93
2017-09-23T05:18:25.117Z,39.07
2017-09-23T05:21:27.477Z,38.10
2017-09-23T05:24:29.439Z,36.47
2017-09-23T05:27:31.810Z,38.83
2017-09-23T05:30:33.832Z,38.60
2017-09-23T05:33:36.193Z,39.07
2017-09-23T05:36:38.345Z,41.70
2017-09-23T05:39:40.706Z,40.00
2017-09-23T05:42:42.672Z,42.93
2017-09-23T05:45:44.961Z,42.93
2017-09-23T05:48:46.901Z,43.67
2017-09-23T05:51:49.300Z,45.87
2017-09-23T05:54:51.270Z,43.30
2017-09-23T05:57:53.641Z,46.60
2017-09-23T06:00:55.882Z,46.67
2017-09-23T06:03:58.324Z,46.60
2017-09-23T06:07:00.383Z,45.20
2017-09-23T06:10:02.755Z,45.13
2017-09-23T06:13:04.710Z,46.87
2017-09-23T06:16:07.048Z,44.10
2017-09-23T06:19:08.983Z,42.93
2017-09-23T06:22:11.356Z,40.40
2017-09-23T06:25:13.297Z,39.43
2017-09-23T06:28:15.865Z,39.87
2017-09-23T06:31:17.804Z,35.47
2017-09-23T06:34:20.086Z,35.57
2017-09-23T06:37:22.170Z,34.65
2017-09-23T06:40:24.489Z,33.97
2017-09-23T06:43:26.420Z,31.42
2017-09-23T06:46:28.724Z,29.35
2017-09-23T06:49:30.728Z,27.95
2017-09-23T06:52:33.020Z,29.10
2017-09-23T06:55:35.032Z,28.92
2017-09-23T06:58:37.329Z,29.00
2017-09-23T07:01:40.160Z,29.65
2017-09-23T07:04:42.530Z,30.67
2017-09-23T07:07:44.668Z,29.92
2017-09-23T07:10:47.048Z,29.12
2017-09-23T07:13:48.988Z,28.60
2017-09-23T07:16:51.349Z,28.90
2017-09-23T07:19:53.421Z,27.50
2017-09-23T07:22:55.751Z,29.12
2017-09-23T07:25:57.805Z,28.23
2017-09-23T07:29:00.151Z,29.87
2017-09-23T07:32:02.298Z,31.00
2017-09-23T07:35:04.760Z,32.65
2017-09-23T07:38:06.716Z,32.05
2017-09-23T07:41:09.090Z,32.40
2017-09-23T07:44:11.037Z,30.45
2017-09-23T07:47:14.200Z,28.92
2017-09-23T07:50:16.240Z,28.15
2017-09-23T07:53:18.514Z,27.83
2017-09-23T07:56:20.442Z,29.58
2017-09-23T07:59:22.812Z,29.52
2017-09-23T08:02:24.759Z,34.10
2017-09-23T08:05:27.111Z,35.28
2017-09-23T08:08:29.091Z,35.05
2017-09-23T08:11:31.406Z,37.33
2017-09-23T08:14:33.362Z,37.90
2017-09-23T08:17:35.706Z,38.42
2017-09-23T08:20:37.666Z,36.90
2017-09-23T08:23:40.015Z,36.35
2017-09-23T08:26:42.077Z,37.28
2017-09-23T08:29:44.445Z,34.95
2017-09-23T08:32:46.507Z,32.50
2017-09-23T08:35:48.848Z,27.02
2017-09-23T08:38:50.892Z,27.27
2017-09-23T08:41:53.247Z,26.23
2017-09-23T08:44:55.192Z,25.23
2017-09-23T08:47:57.570Z,25.70
2017-09-23T08:50:59.498Z,25.90
2017-09-23T08:54:01.792Z,26.23
2017-09-23T08:57:03.804Z,23.45
2017-09-23T09:00:06.280Z,26.98
2017-09-23T09:03:08.305Z,25.40
2017-09-23T09:06:10.664Z,26.40
2017-09-23T09:09:16.243Z,27.55
2017-09-23T09:12:18.556Z,26.95
2017-09-23T09:15:20.489Z,25.85
2017-09-23T09:18:23.527Z,26.90
2017-09-23T09:21:25.531Z,26.73
2017-09-23T09:24:27.812Z,27.17
2017-09-23T09:30:45.725Z,26.45
2017-09-23T09:33:47.763Z,28.23
2017-09-23T09:36:51.039Z,28.48
2017-09-23T09:39:52.983Z,27.10
2017-09-23T09:42:55.346Z,26.60
2017-09-23T09:45:57.272Z,26.95
2017-09-23T09:48:59.649Z,25.92
2017-09-23T09:52:01.624Z,26.00
2017-09-23T09:55:03.960Z,26.55
2017-09-23T09:58:05.894Z,29.02
2017-09-23T10:01:08.992Z,26.33
2017-09-23T10:04:10.932Z,27.33
2017-09-23T10:07:13.293Z,28.00
2017-09-23T10:10:15.235Z,28.85
2017-09-23T10:13:17.592Z,28.58
2017-09-23T10:16:19.536Z,30.35
2017-09-23T10:19:21.915Z,31.17
2017-09-23T10:22:23.942Z,30.00
2017-09-23T10:25:26.303Z,30.50
2017-09-23T10:28:28.245Z,32.58
2017-09-23T10:31:30.624Z,30.83
2017-09-23T10:34:32.659Z,36.08
2017-09-23T10:37:35.019Z,35.08
2017-09-23T10:40:36.958Z,36.38
2017-09-23T10:43:39.327Z,36.17
2017-09-23T10:46:41.371Z,32.95
2017-09-23T10:49:43.746Z,36.08
2017-09-23T10:52:45.697Z,36.58
2017-09-23T10:55:48.031Z,33.85
2017-09-23T10:58:49.981Z,35.65
2017-09-23T11:01:52.343Z,37.22
2017-09-23T11:04:54.296Z,36.83
2017-09-23T11:07:56.639Z,36.40
2017-09-23T11:10:58.601Z,36.10
2017-09-23T11:14:00.955Z,36.55
2017-09-23T11:17:02.996Z,33.80
2017-09-23T11:20:05.346Z,38.53
2017-09-23T11:23:07.318Z,34.63
2017-09-23T11:26:09.672Z,35.47
2017-09-23T11:29:11.711Z,34.45
2017-09-23T11:32:14.173Z,31.92
2017-09-23T11:35:16.137Z,32.03
2017-09-23T11:38:18.488Z,34.63
2017-09-23T11:41:20.538Z,33.78
2017-09-23T11:44:22.892Z,34.30
2017-09-23T11:47:25.661Z,32.88
2017-09-23T11:50:28.000Z,27.00
2017-09-23T11:53:29.961Z,26.08
2017-09-23T11:56:32.320Z,26.40
2017-09-23T11:59:34.286Z,27.05
2017-09-23T12:02:36.634Z,29.33
2017-09-23T12:05:38.662Z,29.02
2017-09-23T12:08:41.035Z,28.75
2017-09-23T12:11:42.971Z,26.80
2017-09-23T12:14:45.338Z,23.98
2017-09-23T12:17:47.390Z,26.23
2017-09-23T12:20:49.671Z,25.50
2017-09-23T12:23:51.708Z,26.45
2017-09-23T12:26:54.061Z,23.65
2017-09-23T12:29:56.098Z,25.50
2017-09-23T12:32:58.469Z,24.02
2017-09-23T12:36:00.519Z,26.17
2017-09-23T12:39:02.810Z,26.23
2017-09-23T12:42:04.833Z,23.98
2017-09-23T12:45:07.179Z,22.90
2017-09-23T12:48:09.226Z,22.08
2017-09-23T12:51:11.682Z,25.35
2017-09-23T12:54:13.631Z,26.27
2017-09-23T12:57:15.984Z,27.33
2017-09-23T13:00:17.944Z,25.65
2017-09-23T13:03:20.294Z,26.95
2017-09-23T13:06:22.242Z,28.50
2017-09-23T13:09:24.603Z,26.12
2017-09-23T13:12:26.547Z,26.80
2017-09-23T13:15:28.913Z,28.27
2017-09-23T13:18:30.855Z,27.10
2017-09-23T13:21:33.203Z,26.90
2017-09-23T13:24:35.151Z,29.45
2017-09-23T13:27:37.522Z,30.42
2017-09-23T13:30:39.454Z,25.27
2017-09-23T13:33:41.759Z,24.75
2017-09-23T13:36:43.764Z,22.13
2017-09-23T13:39:46.026Z,22.92
2017-09-23T13:42:47.969Z,21.35
2017-09-23T13:45:50.249Z,22.15
2017-09-23T13:48:52.206Z,22.83
2017-09-23T13:51:55.648Z,22.30
2017-09-23T13:54:57.589Z,21.90
2017-09-23T13:58:00.549Z,23.30
2017-09-23T14:01:03.253Z,21.85
2017-09-23T14:04:05.597Z,23.95
2017-09-23T14:07:07.568Z,23.52
2017-09-23T14:10:09.919Z,24.00
2017-09-23T14:13:11.955Z,23.87
2017-09-23T14:16:14.291Z,23.55
2017-09-23T14:19:16.988Z,25.62
2017-09-23T14:22:19.338Z,26.67
2017-09-23T14:25:21.295Z,26.77
2017-09-23T14:28:24.458Z,26.62
2017-09-23T14:31:26.483Z,27.33
2017-09-23T14:34:29.612Z,28.45
2017-09-23T14:37:31.638Z,27.17
2017-09-23T14:40:34.009Z,25.67
2017-09-23T14:43:35.945Z,25.52
2017-09-23T14:46:38.329Z,26.23
2017-09-23T14:49:40.291Z,25.33
2017-09-23T14:52:42.702Z,21.92
2017-09-23T14:55:44.660Z,23.65
2017-09-23T14:58:47.118Z,23.98
2017-09-23T15:01:49.055Z,24.92
2017-09-23T15:04:51.391Z,26.15
2017-09-23T15:07:53.374Z,26.62
2017-09-23T15:10:55.724Z,25.52
2017-09-23T15:13:57.691Z,25.90
2017-09-23T15:17:00.236Z,27.75
2017-09-23T15:20:02.194Z,27.52
2017-09-23T15:23:04.531Z,27.48
2017-09-23T15:26:06.467Z,28.55
2017-09-23T15:29:09.586Z,31.37
2017-09-23T15:32:11.519Z,26.10
2017-09-23T15:35:13.990Z,26.42
2017-09-23T15:38:16.023Z,27.50
2017-09-23T15:41:18.416Z,30.37
2017-09-23T15:44:20.439Z,28.10
2017-09-23T15:47:22.796Z,27.95
2017-09-23T15:50:24.743Z,28.38
2017-09-23T15:53:27.098Z,26.62
2017-09-23T15:56:29.039Z,26.83
2017-09-23T15:59:31.419Z,28.77
2017-09-23T16:02:33.473Z,30.98
2017-09-23T16:05:35.811Z,29.55
2017-09-23T16:08:37.851Z,28.98
2017-09-23T16:11:40.235Z,28.48
2017-09-23T16:14:42.259Z,27.52
2017-09-23T16:17:44.730Z,28.05
2017-09-23T16:20:46.659Z,27.92
2017-09-23T16:23:49.054Z,27.85
2017-09-23T16:26:50.982Z,27.27
2017-09-23T16:29:53.340Z,26.45
2017-09-23T16:32:55.287Z,24.70
2017-09-23T16:35:57.648Z,25.02
2017-09-23T16:38:59.699Z,25.48
2017-09-23T16:42:01.996Z,25.65
2017-09-23T16:45:04.918Z,25.08
2017-09-23T16:48:07.379Z,27.48
2017-09-23T16:51:09.326Z,33.13
2017-09-23T16:54:11.642Z,30.50
2017-09-23T16:57:14.367Z,28.20
2017-09-23T17:00:16.703Z,29.10
2017-09-23T17:03:18.788Z,28.12
2017-09-23T17:06:21.068Z,26.45
2017-09-23T17:09:23.030Z,26.65
2017-09-23T17:12:26.238Z,28.92
2017-09-23T17:15:28.192Z,28.20
2017-09-23T17:18:30.555Z,29.12
2017-09-23T17:21:32.505Z,29.45
2017-09-23T17:24:34.943Z,31.95
2017-09-23T17:27:37.015Z,36.75
2017-09-23T17:30:39.383Z,38.72
2017-09-23T17:33:41.415Z,33.47
2017-09-23T17:36:43.767Z,32.08
2017-09-23T17:39:45.702Z,32.90
2017-09-23T17:42:48.066Z,30.70
2017-09-23T17:45:50.068Z,32.05
2017-09-23T17:48:53.203Z,33.53
2017-09-23T17:51:55.154Z,34.25
2017-09-23T17:54:57.485Z,32.72
2017-09-23T17:57:59.565Z,32.35
2017-09-23T18:01:01.912Z,32.67
2017-09-23T18:04:04.642Z,31.42
2017-09-23T18:07:06.975Z,34.97
2017-09-23T18:10:08.920Z,32.95
2017-09-23T18:13:11.293Z,36.03
2017-09-23T18:16:13.322Z,34.60
2017-09-23T18:19:15.698Z,34.33
2017-09-23T18:22:17.676Z,35.85
2017-09-23T18:25:20.925Z,35.92
2017-09-23T18:28:22.881Z,40.10
2017-09-23T18:31:25.217Z,39.58
2017-09-23T18:34:27.167Z,37.22
2017-09-23T18:37:29.519Z,38.47
2017-09-23T18:40:31.672Z,37.90
2017-09-23T18:43:34.006Z,39.10
2017-09-23T18:46:36.852Z,39.22
2017-09-23T18:49:39.150Z,37.95
2017-09-23T18:52:41.112Z,38.67
2017-09-23T18:55:43.469Z,37.95
2017-09-23T18:58:45.432Z,38.90
2017-09-23T19:01:47.765Z,38.83
2017-09-23T19:04:49.724Z,38.63
2017-09-23T19:07:52.845Z,40.30
2017-09-23T19:10:55.661Z,166.77
2017-09-23T19:13:58.028Z,125.43
2017-09-23T19:17:00.081Z,150.07
2017-09-23T19:20:02.448Z,59.05
2017-09-23T19:23:04.476Z,45.63
2017-09-23T19:26:07.568Z,42.62
2017-09-23T19:29:09.586Z,43.65
2017-09-23T19:32:11.875Z,44.28
2017-09-23T19:35:13.891Z,43.10
2017-09-23T19:38:16.267Z,43.55
2017-09-23T19:41:18.316Z,43.15
2017-09-23T19:44:20.995Z,42.83
2017-09-23T19:47:23.012Z,42.20
2017-09-23T19:50:25.320Z,44.25
2017-09-23T19:53:27.293Z,44.22
2017-09-23T19:56:29.587Z,41.63
2017-09-23T19:59:31.855Z,45.33
2017-09-23T20:02:34.205Z,46.25
2017-09-23T20:05:37.377Z,46.45
2017-09-23T20:08:39.740Z,50.63
2017-09-23T20:11:41.770Z,50.17
2017-09-23T20:14:44.148Z,48.28
2017-09-23T20:17:46.080Z,49.63
2017-09-23T20:20:48.456Z,50.33
2017-09-23T20:23:50.463Z,49.53
2017-09-23T20:26:53.561Z,50.78
2017-09-23T20:29:55.513Z,51.67
2017-09-23T20:32:57.891Z,50.28
2017-09-23T20:35:59.926Z,50.80
2017-09-23T20:39:02.369Z,49.70
2017-09-23T20:42:04.321Z,51.60
2017-09-23T20:45:06.676Z,51.85
2017-09-23T20:48:08.701Z,53.10
2017-09-23T20:51:11.261Z,52.15
2017-09-23T20:54:13.236Z,55.15
2017-09-23T20:57:15.577Z,54.72
2017-09-23T21:00:17.624Z,53.95
2017-09-23T21:03:19.992Z,54.80
2017-09-23T21:06:22.031Z,57.60
2017-09-23T21:09:24.400Z,57.25
2017-09-23T21:12:26.441Z,54.63
2017-09-23T21:15:28.808Z,53.80
2017-09-23T21:18:30.848Z,53.55
2017-09-23T21:21:33.133Z,48.75
2017-09-23T21:24:35.155Z,48.10
2017-09-23T21:27:37.506Z,46.58
2017-09-23T21:30:39.613Z,43.85
2017-09-23T21:33:42.893Z,47.72
2017-09-23T21:36:45.612Z,44.72
2017-09-23T21:39:47.948Z,43.92
2017-09-23T21:42:49.880Z,42.90
2017-09-23T21:45:52.383Z,42.50
2017-09-23T21:48:54.321Z,41.00
2017-09-23T21:51:56.702Z,40.50
2017-09-23T21:54:58.726Z,39.90
2017-09-23T21:58:01.095Z,38.88
2017-09-23T22:01:03.046Z,38.97
2017-09-23T22:04:05.433Z,37.42
2017-09-23T22:07:08.168Z,36.80
2017-09-23T22:10:10.525Z,35.60
2017-09-23T22:13:12.496Z,34.92
2017-09-23T22:16:14.861Z,33.95
2017-09-23T22:19:16.862Z,33.08
2017-09-23T22:22:19.227Z,34.13
2017-09-23T22:25:21.168Z,32.95
2017-09-23T22:28:23.519Z,32.28
2017-09-23T22:31:25.482Z,29.92
2017-09-23T22:34:27.750Z,30.45
2017-09-23T22:37:29.755Z,30.20
2017-09-23T22:40:33.663Z,31.02
2017-09-23T22:43:35.629Z,29.37
2017-09-23T22:46:38.116Z,29.92
2017-09-23T22:49:40.172Z,28.65
2017-09-23T22:52:42.513Z,28.80
2017-09-23T22:55:44.479Z,27.73
2017-09-23T22:58:46.841Z,27.80
2017-09-23T23:01:48.778Z,27.60
2017-09-23T23:04:51.099Z,28.92
2017-09-23T23:07:53.060Z,28.95
2017-09-23T23:10:55.420Z,27.80
2017-09-23T23:13:57.471Z,27.73
2017-09-23T23:16:59.752Z,26.73
2017-09-23T23:20:01.776Z,26.50
2017-09-23T23:23:04.132Z,25.88
2017-09-23T23:26:06.195Z,27.13
2017-09-23T23:29:08.584Z,26.10
2017-09-23T23:32:11.577Z,26.42
2017-09-23T23:35:14.687Z,27.80
2017-09-23T23:38:16.735Z,27.50
2017-09-23T23:41:19.215Z,27.65
2017-09-23T23:44:21.362Z,27.27
2017-09-23T23:47:23.750Z,27.37
2017-09-23T23:50:25.799Z,27.55
2017-09-23T23:53:28.154Z,28.75
2017-09-23T23:56:30.982Z,27.95
2017-09-23T23:59:33.309Z,26.70
